Terminal Aerodrome Forecast
Issued by NWS

Home | Current Version | Previous Version | Text Only | Print | Product List | Glossary On
Versions: 1 2 3 4 5 6 7 8 9 10 11 12 13 14 15 16 17 18 19 20 21 22
000
FTUS43 KGRR 070822 AAA
TAFBTL
TAF AMD
KBTL 070822Z 0708/0806 20010KT P6SM SCT120 BKN250
      TEMPO 0708/0710 1 1/2SM SHRA BR OVC015
     FM071100 22010KT 6SM -SHRA BR OVC009
     FM071600 28010KT 4SM -SHRA OVC015
     FM071900 33010KT P6SM SCT250
     FM080000 35006KT P6SM SCT250=

USA.gov is the U.S. government's official web portal to all federal, state and local government web resources and services.